Hauptseite
METAR-TAF:

METAR-TAF

Flughäfen :

Düsseldorf Airport

Düsseldorf, Deutschland

Breite: 51-18N, Länge: 006-46E, Höhe: 45 m

Beobachtung

Neuester Wetterbericht von vor 16 Minuten, um 15:50 UTC
Wind 8 kt aus Nord, variierte zwischen Nord/Nordwest und Nordost
Temperatur 28°C
Luftfeuchtigkeit 32%
Luftdruck 1023 hPa
Sichtweite 10 km oder mehr
keine Wolken unter 1500 m und keine Kumulonimbus oder Gewitterwolken

METAR: EDDL 231550Z 01008KT 340V040 CAVOK 28/10 Q1023 NOSIG

Zeit: 18:06 (16:06 UTC)

Prognose

Neuester Wetterbericht von vor 5 Stunden und 6 Minuten, um 11:00 UTC
Gültige Prognose vom 23 um 12 UTC bis 24 um 18 UTC
Wind 4 kt aus Nord/Nordost
Sichtweite 10 km oder mehr
keine Wolken unter 1500 m und keine Kumulonimbus oder Gewitterwolken
Übergehend zu
vom 24 um 03 UTC bis 24 um 06 UTC
Wind 6 kt aus Ost

TAF: EDDL 231100Z 2312/2418 03004KT CAVOK BECMG 2403/2406 10006KT

Wetterbeobachtungen und Prognosen von mehr als 4000 Flughäfen (METAR und TAF Bericht).

Die verfügbaren Stationen werden durch gelbe und rote Markierungen auf der Karte dargestellt.

Führen Sie die Maus auf sie, um den Namen der Station zu sehen.

Darauf klicken, um die Beobachtung von Wetterbeobachtungen und Prognosen zu sehen.

Um die Karte zu ändern : klicken Sie auf den grünen Tasten mit einem schwarzen Kreuz Zum Vergrößern, auf den grünen Button mit einem Gedankenstrich zu verkleinern, oder auf die grünen Pfeile für benachbarte Karten.


METAR-TAF: